sensor_id;sensor_type;location;lat;lon;timestamp;temperature;humidity
34135;DHT22;20410;55.578;12.968;2023-03-14T00:00:33;9.20;1.00
34135;DHT22;20410;55.578;12.968;2023-03-14T00:02:59;9.20;1.00
34135;DHT22;20410;55.578;12.968;2023-03-14T00:05:25;9.20;1.00
34135;DHT22;20410;55.578;12.968;2023-03-14T00:07:50;9.20;1.00
34135;DHT22;20410;55.578;12.968;2023-03-14T00:10:16;9.10;1.00
34135;DHT22;20410;55.578;12.968;2023-03-14T00:12:43;9.10;1.00
34135;DHT22;20410;55.578;12.968;2023-03-14T00:15:10;9.10;1.00
34135;DHT22;20410;55.578;12.968;2023-03-14T00:17:36;9.00;1.00
34135;DHT22;20410;55.578;12.968;2023-03-14T00:20:03;9.00;1.00
34135;DHT22;20410;55.578;12.968;2023-03-14T00:22:34;9.00;1.00
34135;DHT22;20410;55.578;12.968;2023-03-14T00:25:00;9.00;1.00
34135;DHT22;20410;55.578;12.968;2023-03-14T00:27:26;9.00;1.00
34135;DHT22;20410;55.578;12.968;2023-03-14T00:29:52;9.00;1.00
34135;DHT22;20410;55.578;12.968;2023-03-14T00:32:17;9.00;1.00
34135;DHT22;20410;55.578;12.968;2023-03-14T00:34:43;9.00;1.00
34135;DHT22;20410;55.578;12.968;2023-03-14T00:37:08;8.90;1.00
34135;DHT22;20410;55.578;12.968;2023-03-14T00:39:34;8.80;1.00
34135;DHT22;20410;55.578;12.968;2023-03-14T00:42:00;8.70;1.00
34135;DHT22;20410;55.578;12.968;2023-03-14T00:44:25;8.60;1.00
34135;DHT22;20410;55.578;12.968;2023-03-14T00:46:51;8.60;1.00
34135;DHT22;20410;55.578;12.968;2023-03-14T00:49:16;8.50;1.00
34135;DHT22;20410;55.578;12.968;2023-03-14T00:51:42;8.50;1.00
34135;DHT22;20410;55.578;12.968;2023-03-14T00:54:08;8.40;1.00
34135;DHT22;20410;55.578;12.968;2023-03-14T00:56:33;8.30;1.00
34135;DHT22;20410;55.578;12.968;2023-03-14T00:58:59;8.30;1.00
34135;DHT22;20410;55.578;12.968;2023-03-14T01:01:24;8.20;1.00
34135;DHT22;20410;55.578;12.968;2023-03-14T01:03:54;8.10;1.00
34135;DHT22;20410;55.578;12.968;2023-03-14T01:06:23;8.10;1.00
34135;DHT22;20410;55.578;12.968;2023-03-14T01:08:49;8.10;1.00
34135;DHT22;20410;55.578;12.968;2023-03-14T01:11:21;8.00;1.00
34135;DHT22;20410;55.578;12.968;2023-03-14T01:13:47;8.00;1.00
34135;DHT22;20410;55.578;12.968;2023-03-14T01:16:13;8.00;1.00
34135;DHT22;20410;55.578;12.968;2023-03-14T01:18:40;8.00;1.00
34135;DHT22;20410;55.578;12.968;2023-03-14T01:21:14;8.00;1.00
34135;DHT22;20410;55.578;12.968;2023-03-14T01:23:40;7.90;1.00
34135;DHT22;20410;55.578;12.968;2023-03-14T01:26:12;7.90;1.00
34135;DHT22;20410;55.578;12.968;2023-03-14T01:28:38;7.90;1.00
34135;DHT22;20410;55.578;12.968;2023-03-14T01:31:06;7.90;1.00
34135;DHT22;20410;55.578;12.968;2023-03-14T01:33:32;7.90;1.00
34135;DHT22;20410;55.578;12.968;2023-03-14T01:35:58;7.90;1.00
34135;DHT22;20410;55.578;12.968;2023-03-14T01:38:24;8.00;1.00
34135;DHT22;20410;55.578;12.968;2023-03-14T01:40:50;8.00;1.00
34135;DHT22;20410;55.578;12.968;2023-03-14T01:43:18;8.10;1.00
34135;DHT22;20410;55.578;12.968;2023-03-14T01:48:37;8.00;1.00
34135;DHT22;20410;55.578;12.968;2023-03-14T01:51:05;8.00;1.00
34135;DHT22;20410;55.578;12.968;2023-03-14T01:53:33;7.90;1.00
34135;DHT22;20410;55.578;12.968;2023-03-14T01:55:59;7.90;1.00
34135;DHT22;20410;55.578;12.968;2023-03-14T01:58:27;7.90;1.00
34135;DHT22;20410;55.578;12.968;2023-03-14T02:00:55;7.90;1.00
34135;DHT22;20410;55.578;12.968;2023-03-14T02:03:23;8.00;1.00
34135;DHT22;20410;55.578;12.968;2023-03-14T02:05:50;8.00;1.00
34135;DHT22;20410;55.578;12.968;2023-03-14T02:08:20;8.00;1.00
34135;DHT22;20410;55.578;12.968;2023-03-14T02:10:48;8.10;1.00
34135;DHT22;20410;55.578;12.968;2023-03-14T02:13:17;8.10;1.00
34135;DHT22;20410;55.578;12.968;2023-03-14T02:15:43;8.10;1.00
34135;DHT22;20410;55.578;12.968;2023-03-14T02:18:10;8.10;1.00
34135;DHT22;20410;55.578;12.968;2023-03-14T02:23:43;8.20;1.00
34135;DHT22;20410;55.578;12.968;2023-03-14T02:26:24;8.10;1.00
34135;DHT22;20410;55.578;12.968;2023-03-14T02:28:53;8.10;1.00
34135;DHT22;20410;55.578;12.968;2023-03-14T02:31:19;8.10;1.00
34135;DHT22;20410;55.578;12.968;2023-03-14T02:33:46;8.10;1.00
34135;DHT22;20410;55.578;12.968;2023-03-14T02:36:14;8.00;1.00
34135;DHT22;20410;55.578;12.968;2023-03-14T02:38:43;8.00;1.00
34135;DHT22;20410;55.578;12.968;2023-03-14T02:41:11;8.00;1.00
34135;DHT22;20410;55.578;12.968;2023-03-14T02:43:36;8.00;1.00
34135;DHT22;20410;55.578;12.968;2023-03-14T02:46:04;8.10;1.00
34135;DHT22;20410;55.578;12.968;2023-03-14T02:48:41;8.10;1.00
34135;DHT22;20410;55.578;12.968;2023-03-14T02:51:08;8.10;1.00
34135;DHT22;20410;55.578;12.968;2023-03-14T02:53:35;8.10;1.00
34135;DHT22;20410;55.578;12.968;2023-03-14T02:56:02;8.10;1.00
34135;DHT22;20410;55.578;12.968;2023-03-14T02:58:28;8.10;1.00
34135;DHT22;20410;55.578;12.968;2023-03-14T03:00:54;8.10;1.00
34135;DHT22;20410;55.578;12.968;2023-03-14T03:03:20;8.20;1.00
34135;DHT22;20410;55.578;12.968;2023-03-14T03:05:53;8.20;1.00
34135;DHT22;20410;55.578;12.968;2023-03-14T03:08:21;8.20;1.00
34135;DHT22;20410;55.578;12.968;2023-03-14T03:10:47;8.20;1.00
34135;DHT22;20410;55.578;12.968;2023-03-14T03:13:13;8.30;1.00
34135;DHT22;20410;55.578;12.968;2023-03-14T03:15:38;8.30;1.00
34135;DHT22;20410;55.578;12.968;2023-03-14T03:18:04;8.30;1.00
34135;DHT22;20410;55.578;12.968;2023-03-14T03:20:30;8.30;1.00
34135;DHT22;20410;55.578;12.968;2023-03-14T03:22:56;8.30;1.00
34135;DHT22;20410;55.578;12.968;2023-03-14T03:25:21;8.30;1.00
34135;DHT22;20410;55.578;12.968;2023-03-14T03:27:47;8.30;1.00
34135;DHT22;20410;55.578;12.968;2023-03-14T03:30:13;8.30;1.00
34135;DHT22;20410;55.578;12.968;2023-03-14T03:32:38;8.30;1.00
34135;DHT22;20410;55.578;12.968;2023-03-14T03:35:04;8.30;1.00
34135;DHT22;20410;55.578;12.968;2023-03-14T03:37:32;8.30;1.00
34135;DHT22;20410;55.578;12.968;2023-03-14T03:39:58;8.40;1.00
34135;DHT22;20410;55.578;12.968;2023-03-14T03:42:23;8.40;1.00
34135;DHT22;20410;55.578;12.968;2023-03-14T03:44:49;8.40;1.00
34135;DHT22;20410;55.578;12.968;2023-03-14T03:47:15;8.40;1.00
34135;DHT22;20410;55.578;12.968;2023-03-14T03:49:41;8.40;1.00
34135;DHT22;20410;55.578;12.968;2023-03-14T03:52:06;8.40;1.00
34135;DHT22;20410;55.578;12.968;2023-03-14T03:54:32;8.30;1.00
34135;DHT22;20410;55.578;12.968;2023-03-14T03:56:57;8.30;1.00
34135;DHT22;20410;55.578;12.968;2023-03-14T03:59:23;8.20;1.00
34135;DHT22;20410;55.578;12.968;2023-03-14T04:01:49;8.10;1.00
34135;DHT22;20410;55.578;12.968;2023-03-14T04:04:14;8.10;1.00
34135;DHT22;20410;55.578;12.968;2023-03-14T04:06:40;8.10;1.00
34135;DHT22;20410;55.578;12.968;2023-03-14T04:09:08;8.10;1.00
34135;DHT22;20410;55.578;12.968;2023-03-14T04:11:33;8.10;1.00
34135;DHT22;20410;55.578;12.968;2023-03-14T04:13:59;8.00;1.00
34135;DHT22;20410;55.578;12.968;2023-03-14T04:16:25;8.00;1.00
34135;DHT22;20410;55.578;12.968;2023-03-14T04:18:51;8.00;1.00
34135;DHT22;20410;55.578;12.968;2023-03-14T04:21:17;8.00;1.00
34135;DHT22;20410;55.578;12.968;2023-03-14T04:23:43;8.00;1.00
34135;DHT22;20410;55.578;12.968;2023-03-14T04:26:09;8.00;1.00
34135;DHT22;20410;55.578;12.968;2023-03-14T04:28:35;8.00;1.00
34135;DHT22;20410;55.578;12.968;2023-03-14T04:31:09;7.90;1.00
34135;DHT22;20410;55.578;12.968;2023-03-14T04:33:35;7.90;1.00
34135;DHT22;20410;55.578;12.968;2023-03-14T04:36:03;7.90;1.00
34135;DHT22;20410;55.578;12.968;2023-03-14T04:38:29;7.90;1.00
34135;DHT22;20410;55.578;12.968;2023-03-14T04:40:54;8.00;1.00
34135;DHT22;20410;55.578;12.968;2023-03-14T04:43:20;8.10;1.00
34135;DHT22;20410;55.578;12.968;2023-03-14T04:45:45;8.20;1.00
34135;DHT22;20410;55.578;12.968;2023-03-14T04:48:11;8.30;1.00
34135;DHT22;20410;55.578;12.968;2023-03-14T04:50:38;8.30;1.00
34135;DHT22;20410;55.578;12.968;2023-03-14T04:53:04;8.40;1.00
34135;DHT22;20410;55.578;12.968;2023-03-14T04:55:30;8.50;1.00
34135;DHT22;20410;55.578;12.968;2023-03-14T04:57:57;8.50;1.00
34135;DHT22;20410;55.578;12.968;2023-03-14T05:00:23;8.50;1.00
34135;DHT22;20410;55.578;12.968;2023-03-14T05:02:48;8.50;1.00
34135;DHT22;20410;55.578;12.968;2023-03-14T05:05:14;8.50;1.00
34135;DHT22;20410;55.578;12.968;2023-03-14T05:07:39;8.50;1.00
34135;DHT22;20410;55.578;12.968;2023-03-14T05:10:05;8.50;1.00
34135;DHT22;20410;55.578;12.968;2023-03-14T05:12:31;8.50;1.00
34135;DHT22;20410;55.578;12.968;2023-03-14T05:14:56;8.40;1.00
34135;DHT22;20410;55.578;12.968;2023-03-14T05:17:22;8.30;1.00
34135;DHT22;20410;55.578;12.968;2023-03-14T05:19:47;8.20;1.00
34135;DHT22;20410;55.578;12.968;2023-03-14T05:22:13;8.10;1.00
34135;DHT22;20410;55.578;12.968;2023-03-14T05:24:39;8.10;1.00
34135;DHT22;20410;55.578;12.968;2023-03-14T05:27:04;8.10;1.00
34135;DHT22;20410;55.578;12.968;2023-03-14T05:29:30;8.10;1.00
34135;DHT22;20410;55.578;12.968;2023-03-14T05:31:56;8.10;1.00
34135;DHT22;20410;55.578;12.968;2023-03-14T05:34:21;8.20;1.00
34135;DHT22;20410;55.578;12.968;2023-03-14T05:36:47;8.20;1.00
34135;DHT22;20410;55.578;12.968;2023-03-14T05:39:12;8.10;1.00
34135;DHT22;20410;55.578;12.968;2023-03-14T05:41:38;8.20;1.00
34135;DHT22;20410;55.578;12.968;2023-03-14T05:44:04;8.20;1.00
34135;DHT22;20410;55.578;12.968;2023-03-14T05:46:29;8.20;1.00
34135;DHT22;20410;55.578;12.968;2023-03-14T05:48:58;8.30;1.00
34135;DHT22;20410;55.578;12.968;2023-03-14T05:51:24;8.30;1.00
34135;DHT22;20410;55.578;12.968;2023-03-14T05:53:50;8.30;1.00
34135;DHT22;20410;55.578;12.968;2023-03-14T05:56:16;8.30;1.00
34135;DHT22;20410;55.578;12.968;2023-03-14T05:58:41;8.20;1.00
34135;DHT22;20410;55.578;12.968;2023-03-14T06:01:08;8.20;1.00
34135;DHT22;20410;55.578;12.968;2023-03-14T06:03:33;8.10;1.00
34135;DHT22;20410;55.578;12.968;2023-03-14T06:05:59;8.10;1.00
34135;DHT22;20410;55.578;12.968;2023-03-14T06:08:25;8.10;1.00
34135;DHT22;20410;55.578;12.968;2023-03-14T06:10:51;8.10;1.00
34135;DHT22;20410;55.578;12.968;2023-03-14T06:13:17;8.20;1.00
34135;DHT22;20410;55.578;12.968;2023-03-14T06:15:43;8.20;1.00
34135;DHT22;20410;55.578;12.968;2023-03-14T06:18:09;8.30;1.00
34135;DHT22;20410;55.578;12.968;2023-03-14T06:20:38;8.30;1.00
34135;DHT22;20410;55.578;12.968;2023-03-14T06:23:05;8.40;1.00
34135;DHT22;20410;55.578;12.968;2023-03-14T06:25:31;8.40;1.00
34135;DHT22;20410;55.578;12.968;2023-03-14T06:27:57;8.40;1.00
34135;DHT22;20410;55.578;12.968;2023-03-14T06:30:23;8.50;1.00
34135;DHT22;20410;55.578;12.968;2023-03-14T06:32:48;8.50;1.00
34135;DHT22;20410;55.578;12.968;2023-03-14T06:35:14;8.50;1.00
34135;DHT22;20410;55.578;12.968;2023-03-14T06:37:40;8.50;1.00
34135;DHT22;20410;55.578;12.968;2023-03-14T06:40:06;8.50;1.00
34135;DHT22;20410;55.578;12.968;2023-03-14T06:42:32;8.50;1.00
34135;DHT22;20410;55.578;12.968;2023-03-14T06:44:58;8.50;17.60
34135;DHT22;20410;55.578;12.968;2023-03-14T06:47:24;8.50;31.40
34135;DHT22;20410;55.578;12.968;2023-03-14T06:49:49;8.60;30.00
34135;DHT22;20410;55.578;12.968;2023-03-14T06:52:15;8.60;25.80
34135;DHT22;20410;55.578;12.968;2023-03-14T06:54:40;8.50;28.90
34135;DHT22;20410;55.578;12.968;2023-03-14T06:57:06;8.50;38.60
34135;DHT22;20410;55.578;12.968;2023-03-14T06:59:32;8.50;39.10
34135;DHT22;20410;55.578;12.968;2023-03-14T07:01:57;8.60;40.70
34135;DHT22;20410;55.578;12.968;2023-03-14T07:04:23;8.50;40.60
34135;DHT22;20410;55.578;12.968;2023-03-14T07:06:48;8.50;40.00
34135;DHT22;20410;55.578;12.968;2023-03-14T07:09:15;8.60;37.50
34135;DHT22;20410;55.578;12.968;2023-03-14T07:11:42;8.60;45.20
34135;DHT22;20410;55.578;12.968;2023-03-14T07:14:08;8.60;44.90
34135;DHT22;20410;55.578;12.968;2023-03-14T07:16:33;8.70;50.00
34135;DHT22;20410;55.578;12.968;2023-03-14T07:19:00;8.70;57.30
34135;DHT22;20410;55.578;12.968;2023-03-14T07:21:26;8.80;61.60
34135;DHT22;20410;55.578;12.968;2023-03-14T07:23:52;8.90;56.00
34135;DHT22;20410;55.578;12.968;2023-03-14T07:26:18;8.90;51.90
34135;DHT22;20410;55.578;12.968;2023-03-14T07:28:43;9.00;54.70
34135;DHT22;20410;55.578;12.968;2023-03-14T07:31:09;9.10;54.60
34135;DHT22;20410;55.578;12.968;2023-03-14T07:33:35;9.20;48.80
34135;DHT22;20410;55.578;12.968;2023-03-14T07:36:00;9.20;50.10
34135;DHT22;20410;55.578;12.968;2023-03-14T07:38:26;9.30;38.70
34135;DHT22;20410;55.578;12.968;2023-03-14T07:41:03;9.30;26.50
34135;DHT22;20410;55.578;12.968;2023-03-14T07:43:29;9.30;6.50
34135;DHT22;20410;55.578;12.968;2023-03-14T07:45:55;9.30;12.00
34135;DHT22;20410;55.578;12.968;2023-03-14T07:48:21;9.30;2.50
34135;DHT22;20410;55.578;12.968;2023-03-14T07:50:51;9.30;1.00
34135;DHT22;20410;55.578;12.968;2023-03-14T07:53:17;9.30;1.00
34135;DHT22;20410;55.578;12.968;2023-03-14T07:55:43;9.20;1.00
34135;DHT22;20410;55.578;12.968;2023-03-14T07:58:09;9.20;1.00
34135;DHT22;20410;55.578;12.968;2023-03-14T08:00:34;9.10;1.00
34135;DHT22;20410;55.578;12.968;2023-03-14T08:03:00;9.20;9.60
34135;DHT22;20410;55.578;12.968;2023-03-14T08:05:26;9.20;5.30
34135;DHT22;20410;55.578;12.968;2023-03-14T08:07:51;9.30;1.00
34135;DHT22;20410;55.578;12.968;2023-03-14T08:10:17;9.30;6.30
34135;DHT22;20410;55.578;12.968;2023-03-14T08:12:54;9.40;3.90
34135;DHT22;20410;55.578;12.968;2023-03-14T08:15:20;9.50;8.50
34135;DHT22;20410;55.578;12.968;2023-03-14T08:17:46;9.50;1.00
34135;DHT22;20410;55.578;12.968;2023-03-14T08:20:17;9.60;1.00
34135;DHT22;20410;55.578;12.968;2023-03-14T08:22:42;9.60;1.00
34135;DHT22;20410;55.578;12.968;2023-03-14T08:25:08;9.60;1.00
34135;DHT22;20410;55.578;12.968;2023-03-14T08:27:34;9.50;1.00
34135;DHT22;20410;55.578;12.968;2023-03-14T08:30:03;9.50;1.00
34135;DHT22;20410;55.578;12.968;2023-03-14T08:32:29;9.50;1.00
34135;DHT22;20410;55.578;12.968;2023-03-14T08:34:55;9.50;1.00
34135;DHT22;20410;55.578;12.968;2023-03-14T08:37:22;9.50;1.00
34135;DHT22;20410;55.578;12.968;2023-03-14T08:39:49;9.50;1.00
34135;DHT22;20410;55.578;12.968;2023-03-14T08:42:15;9.60;1.00
34135;DHT22;20410;55.578;12.968;2023-03-14T08:44:40;9.60;1.00
34135;DHT22;20410;55.578;12.968;2023-03-14T08:47:06;9.60;1.00
34135;DHT22;20410;55.578;12.968;2023-03-14T08:49:32;9.50;1.00
34135;DHT22;20410;55.578;12.968;2023-03-14T08:51:58;9.60;1.00
34135;DHT22;20410;55.578;12.968;2023-03-14T08:54:24;9.60;1.00
34135;DHT22;20410;55.578;12.968;2023-03-14T08:56:49;9.60;1.00
34135;DHT22;20410;55.578;12.968;2023-03-14T08:59:15;9.70;1.00
34135;DHT22;20410;55.578;12.968;2023-03-14T09:01:41;9.70;1.00
34135;DHT22;20410;55.578;12.968;2023-03-14T09:04:06;9.80;1.00
34135;DHT22;20410;55.578;12.968;2023-03-14T09:06:32;9.80;1.00
34135;DHT22;20410;55.578;12.968;2023-03-14T09:08:57;9.80;1.00
34135;DHT22;20410;55.578;12.968;2023-03-14T09:11:23;9.80;1.00
34135;DHT22;20410;55.578;12.968;2023-03-14T09:13:49;9.80;1.00
34135;DHT22;20410;55.578;12.968;2023-03-14T09:16:14;9.80;1.00
34135;DHT22;20410;55.578;12.968;2023-03-14T09:18:40;9.80;1.00
34135;DHT22;20410;55.578;12.968;2023-03-14T09:21:06;9.80;1.00
34135;DHT22;20410;55.578;12.968;2023-03-14T09:23:31;9.80;1.00
34135;DHT22;20410;55.578;12.968;2023-03-14T09:25:59;9.70;1.00
34135;DHT22;20410;55.578;12.968;2023-03-14T09:28:25;9.70;1.00
34135;DHT22;20410;55.578;12.968;2023-03-14T09:30:51;9.70;1.00
34135;DHT22;20410;55.578;12.968;2023-03-14T09:33:17;9.70;1.00
34135;DHT22;20410;55.578;12.968;2023-03-14T09:35:43;9.60;1.00
34135;DHT22;20410;55.578;12.968;2023-03-14T09:38:09;9.60;1.00
34135;DHT22;20410;55.578;12.968;2023-03-14T09:40:36;9.50;18.20
34135;DHT22;20410;55.578;12.968;2023-03-14T09:43:02;9.50;29.70
34135;DHT22;20410;55.578;12.968;2023-03-14T09:45:33;9.50;58.70
34135;DHT22;20410;55.578;12.968;2023-03-14T09:48:02;9.50;76.20
34135;DHT22;20410;55.578;12.968;2023-03-14T09:50:42;9.40;66.90
34135;DHT22;20410;55.578;12.968;2023-03-14T09:53:19;9.30;58.90
34135;DHT22;20410;55.578;12.968;2023-03-14T09:55:47;9.10;38.40
34135;DHT22;20410;55.578;12.968;2023-03-14T09:58:18;8.70;1.00
34135;DHT22;20410;55.578;12.968;2023-03-14T10:00:44;7.90;1.00
34135;DHT22;20410;55.578;12.968;2023-03-14T10:05:39;6.70;1.00
34135;DHT22;20410;55.578;12.968;2023-03-14T10:08:05;6.20;7.80
34135;DHT22;20410;55.578;12.968;2023-03-14T10:10:32;6.10;37.20
34135;DHT22;20410;55.578;12.968;2023-03-14T10:12:59;6.00;79.20
34135;DHT22;20410;55.578;12.968;2023-03-14T10:15:31;6.10;83.80
34135;DHT22;20410;55.578;12.968;2023-03-14T10:18:00;6.00;67.20
34135;DHT22;20410;55.578;12.968;2023-03-14T10:20:38;6.00;72.00
34135;DHT22;20410;55.578;12.968;2023-03-14T10:23:22;6.10;85.30
34135;DHT22;20410;55.578;12.968;2023-03-14T10:26:06;6.10;75.10
34135;DHT22;20410;55.578;12.968;2023-03-14T10:28:37;6.00;42.80
34135;DHT22;20410;55.578;12.968;2023-03-14T10:31:03;5.90;49.30
34135;DHT22;20410;55.578;12.968;2023-03-14T10:33:35;5.90;62.30
34135;DHT22;20410;55.578;12.968;2023-03-14T10:38:33;5.60;16.70
34135;DHT22;20410;55.578;12.968;2023-03-14T10:41:00;5.60;16.60
34135;DHT22;20410;55.578;12.968;2023-03-14T10:43:31;5.50;1.00
34135;DHT22;20410;55.578;12.968;2023-03-14T10:46:17;5.40;1.00
34135;DHT22;20410;55.578;12.968;2023-03-14T10:48:44;5.40;1.00
34135;DHT22;20410;55.578;12.968;2023-03-14T10:54:12;5.30;1.00
34135;DHT22;20410;55.578;12.968;2023-03-14T10:56:38;5.20;1.00
34135;DHT22;20410;55.578;12.968;2023-03-14T10:59:07;5.10;1.00
34135;DHT22;20410;55.578;12.968;2023-03-14T11:01:54;5.00;1.00
34135;DHT22;20410;55.578;12.968;2023-03-14T11:09:45;5.10;1.00
34135;DHT22;20410;55.578;12.968;2023-03-14T11:14:58;5.00;1.00
34135;DHT22;20410;55.578;12.968;2023-03-14T11:20:59;5.00;1.00
34135;DHT22;20410;55.578;12.968;2023-03-14T11:24:10;4.90;1.00
34135;DHT22;20410;55.578;12.968;2023-03-14T11:26:57;4.80;1.00
34135;DHT22;20410;55.578;12.968;2023-03-14T11:29:28;4.70;1.00
34135;DHT22;20410;55.578;12.968;2023-03-14T11:32:00;4.80;1.00
34135;DHT22;20410;55.578;12.968;2023-03-14T11:37:07;4.80;1.00
34135;DHT22;20410;55.578;12.968;2023-03-14T11:39:41;4.80;1.00
34135;DHT22;20410;55.578;12.968;2023-03-14T11:42:14;4.90;1.00
34135;DHT22;20410;55.578;12.968;2023-03-14T11:44:44;4.80;1.00
34135;DHT22;20410;55.578;12.968;2023-03-14T11:55:10;5.00;1.00
34135;DHT22;20410;55.578;12.968;2023-03-14T11:57:39;5.00;1.00
34135;DHT22;20410;55.578;12.968;2023-03-14T12:00:19;5.10;1.00
34135;DHT22;20410;55.578;12.968;2023-03-14T12:11:04;5.00;1.00
34135;DHT22;20410;55.578;12.968;2023-03-14T12:13:37;5.10;1.00
34135;DHT22;20410;55.578;12.968;2023-03-14T12:16:26;5.20;1.00
34135;DHT22;20410;55.578;12.968;2023-03-14T12:18:52;5.20;1.00
34135;DHT22;20410;55.578;12.968;2023-03-14T12:21:19;5.20;1.00
34135;DHT22;20410;55.578;12.968;2023-03-14T12:23:52;5.30;1.00
34135;DHT22;20410;55.578;12.968;2023-03-14T12:26:26;5.40;1.00
34135;DHT22;20410;55.578;12.968;2023-03-14T12:29:11;5.50;1.00
34135;DHT22;20410;55.578;12.968;2023-03-14T12:31:47;5.60;1.00
34135;DHT22;20410;55.578;12.968;2023-03-14T12:44:48;6.20;1.00
34135;DHT22;20410;55.578;12.968;2023-03-14T12:49:46;6.20;1.00
34135;DHT22;20410;55.578;12.968;2023-03-14T12:52:35;6.30;1.00
34135;DHT22;20410;55.578;12.968;2023-03-14T12:55:14;6.40;1.00
34135;DHT22;20410;55.578;12.968;2023-03-14T12:57:55;6.30;1.00
34135;DHT22;20410;55.578;12.968;2023-03-14T13:00:31;6.30;1.00
34135;DHT22;20410;55.578;12.968;2023-03-14T13:03:18;6.30;1.00
34135;DHT22;20410;55.578;12.968;2023-03-14T13:05:59;6.30;1.00
34135;DHT22;20410;55.578;12.968;2023-03-14T13:08:36;6.40;1.00
34135;DHT22;20410;55.578;12.968;2023-03-14T13:11:05;6.60;1.00
34135;DHT22;20410;55.578;12.968;2023-03-14T13:13:34;6.60;1.00
34135;DHT22;20410;55.578;12.968;2023-03-14T13:16:01;6.70;1.00
34135;DHT22;20410;55.578;12.968;2023-03-14T13:18:48;6.70;1.00
34135;DHT22;20410;55.578;12.968;2023-03-14T13:21:17;6.70;1.00
34135;DHT22;20410;55.578;12.968;2023-03-14T13:24:03;6.80;1.00
34135;DHT22;20410;55.578;12.968;2023-03-14T13:26:41;6.80;1.00
34135;DHT22;20410;55.578;12.968;2023-03-14T13:29:20;6.80;1.00
34135;DHT22;20410;55.578;12.968;2023-03-14T13:31:52;6.80;1.00
34135;DHT22;20410;55.578;12.968;2023-03-14T13:34:18;6.80;1.00
34135;DHT22;20410;55.578;12.968;2023-03-14T13:36:44;6.80;1.00
34135;DHT22;20410;55.578;12.968;2023-03-14T13:39:14;6.90;1.00
34135;DHT22;20410;55.578;12.968;2023-03-14T13:41:42;6.90;1.00
34135;DHT22;20410;55.578;12.968;2023-03-14T13:44:14;6.90;1.00
34135;DHT22;20410;55.578;12.968;2023-03-14T13:46:41;7.00;1.00
34135;DHT22;20410;55.578;12.968;2023-03-14T13:49:13;7.00;1.00
34135;DHT22;20410;55.578;12.968;2023-03-14T13:51:40;7.00;1.00
34135;DHT22;20410;55.578;12.968;2023-03-14T13:54:18;6.90;1.00
34135;DHT22;20410;55.578;12.968;2023-03-14T13:56:44;6.80;1.00
34135;DHT22;20410;55.578;12.968;2023-03-14T13:59:23;6.80;1.00
34135;DHT22;20410;55.578;12.968;2023-03-14T14:01:50;6.90;1.00
34135;DHT22;20410;55.578;12.968;2023-03-14T14:04:18;6.90;1.00
34135;DHT22;20410;55.578;12.968;2023-03-14T14:06:50;6.90;1.00
34135;DHT22;20410;55.578;12.968;2023-03-14T14:09:25;6.90;1.00
34135;DHT22;20410;55.578;12.968;2023-03-14T14:14:40;6.90;1.00
34135;DHT22;20410;55.578;12.968;2023-03-14T14:17:11;7.00;1.00
34135;DHT22;20410;55.578;12.968;2023-03-14T14:19:39;7.10;1.00
34135;DHT22;20410;55.578;12.968;2023-03-14T14:22:05;7.20;1.00
34135;DHT22;20410;55.578;12.968;2023-03-14T14:24:32;7.30;1.00
34135;DHT22;20410;55.578;12.968;2023-03-14T14:27:01;7.30;1.00
34135;DHT22;20410;55.578;12.968;2023-03-14T14:29:30;7.30;1.00
34135;DHT22;20410;55.578;12.968;2023-03-14T14:32:22;7.30;1.00
34135;DHT22;20410;55.578;12.968;2023-03-14T14:39:47;7.20;1.00
34135;DHT22;20410;55.578;12.968;2023-03-14T14:42:15;7.20;1.00
34135;DHT22;20410;55.578;12.968;2023-03-14T14:44:44;7.20;1.00
34135;DHT22;20410;55.578;12.968;2023-03-14T14:47:14;7.20;1.00
34135;DHT22;20410;55.578;12.968;2023-03-14T14:49:41;7.20;1.00
34135;DHT22;20410;55.578;12.968;2023-03-14T14:52:13;7.30;1.00
34135;DHT22;20410;55.578;12.968;2023-03-14T14:54:48;7.20;1.00
34135;DHT22;20410;55.578;12.968;2023-03-14T14:57:22;7.10;1.00
34135;DHT22;20410;55.578;12.968;2023-03-14T14:59:50;7.10;1.00
34135;DHT22;20410;55.578;12.968;2023-03-14T15:02:29;7.00;1.00
34135;DHT22;20410;55.578;12.968;2023-03-14T15:04:55;7.00;1.00
34135;DHT22;20410;55.578;12.968;2023-03-14T15:07:20;6.90;1.00
34135;DHT22;20410;55.578;12.968;2023-03-14T15:09:46;6.90;1.00
34135;DHT22;20410;55.578;12.968;2023-03-14T15:12:11;6.90;1.00
34135;DHT22;20410;55.578;12.968;2023-03-14T15:14:37;6.80;1.00
34135;DHT22;20410;55.578;12.968;2023-03-14T15:17:03;6.70;1.00
34135;DHT22;20410;55.578;12.968;2023-03-14T15:19:29;6.70;1.00
34135;DHT22;20410;55.578;12.968;2023-03-14T15:21:58;6.70;1.00
34135;DHT22;20410;55.578;12.968;2023-03-14T15:24:24;6.80;1.00
34135;DHT22;20410;55.578;12.968;2023-03-14T15:26:50;6.80;1.00
34135;DHT22;20410;55.578;12.968;2023-03-14T15:29:16;6.80;99.90
34135;DHT22;20410;55.578;12.968;2023-03-14T15:31:43;6.80;99.90
34135;DHT22;20410;55.578;12.968;2023-03-14T15:34:09;6.80;99.90
34135;DHT22;20410;55.578;12.968;2023-03-14T15:36:36;6.80;99.90
34135;DHT22;20410;55.578;12.968;2023-03-14T15:39:04;6.70;99.90
34135;DHT22;20410;55.578;12.968;2023-03-14T15:41:31;6.70;99.90
34135;DHT22;20410;55.578;12.968;2023-03-14T15:43:57;6.70;99.90
34135;DHT22;20410;55.578;12.968;2023-03-14T15:46:23;6.70;99.90
34135;DHT22;20410;55.578;12.968;2023-03-14T15:48:50;6.70;99.90
34135;DHT22;20410;55.578;12.968;2023-03-14T15:51:17;6.70;99.90
34135;DHT22;20410;55.578;12.968;2023-03-14T15:53:43;6.70;99.90
34135;DHT22;20410;55.578;12.968;2023-03-14T15:56:13;6.70;99.90
34135;DHT22;20410;55.578;12.968;2023-03-14T15:58:39;6.70;99.90
34135;DHT22;20410;55.578;12.968;2023-03-14T16:01:06;6.60;99.90
34135;DHT22;20410;55.578;12.968;2023-03-14T16:03:34;6.60;99.90
34135;DHT22;20410;55.578;12.968;2023-03-14T16:06:00;6.60;99.90
34135;DHT22;20410;55.578;12.968;2023-03-14T16:08:26;6.60;99.90
34135;DHT22;20410;55.578;12.968;2023-03-14T16:10:54;6.60;99.90
34135;DHT22;20410;55.578;12.968;2023-03-14T16:13:20;6.60;99.90
34135;DHT22;20410;55.578;12.968;2023-03-14T16:16:12;6.60;99.90
34135;DHT22;20410;55.578;12.968;2023-03-14T16:18:38;6.60;99.90
34135;DHT22;20410;55.578;12.968;2023-03-14T16:21:07;6.50;99.90
34135;DHT22;20410;55.578;12.968;2023-03-14T16:23:33;6.50;99.90
34135;DHT22;20410;55.578;12.968;2023-03-14T16:26:02;6.50;99.90
34135;DHT22;20410;55.578;12.968;2023-03-14T16:28:28;6.50;99.90
34135;DHT22;20410;55.578;12.968;2023-03-14T16:31:00;6.50;99.90
34135;DHT22;20410;55.578;12.968;2023-03-14T16:33:25;6.50;99.90
34135;DHT22;20410;55.578;12.968;2023-03-14T16:35:55;6.50;99.90
34135;DHT22;20410;55.578;12.968;2023-03-14T16:38:22;6.40;99.90
34135;DHT22;20410;55.578;12.968;2023-03-14T16:41:06;6.40;99.90
34135;DHT22;20410;55.578;12.968;2023-03-14T16:43:32;6.40;99.90
34135;DHT22;20410;55.578;12.968;2023-03-14T16:46:05;6.30;99.90
34135;DHT22;20410;55.578;12.968;2023-03-14T16:48:31;6.30;99.90
34135;DHT22;20410;55.578;12.968;2023-03-14T16:50:57;6.30;99.90
34135;DHT22;20410;55.578;12.968;2023-03-14T16:53:23;6.40;99.90